»·PEaware :: N182RB KPRC-KPRC

N182RB :: KPRC-KPRC

FLIGHT INFORMATION

Flight Status: Arrived
Operator: Privately registered:
United States
More flights under this callsign
Pilot: Steve H. (15226)
Aircraft: CESSNA 182 SKYLANE
(C182)
More flights by this aircraft type
Origin: KPRC Love
United States
Destination: KPRC Love
United States
More flights between these airports :: More routes between these airports
Route:
File this flight plan on PilotEdge
Remarks: nffs
Altitude:
(Current/Filed)
0ft
Speed:
(Current/Filed)
0kts
Departed: 03-Apr-23 03:44 PM
Arrived: 03-Apr-23 05:06 PM
Distance/Time
Traveled:
0nm/1:22
Distance/Time
To Go:
Arrived

Flight Plot

Page will automatically refresh every two minutes.

Flight plan parsing failed; only flown route is shown


Map Options




Map Legend


Flown Route
Filed Route
Departure Airport
Arrival Airport
Navaid (VOR, NDB)
Fix

Horizontal Profiles

Position Reports

Time Latitude Longitude Heading Altitude Ground
Speed
03-Apr-23 15:42 34.611871 -112.487129 232 6167ft 120kts
03-Apr-23 15:43 34.588536 -112.521132 230 6191ft 134kts
03-Apr-23 15:44 34.563621 -112.553596 216 6520ft 113kts
03-Apr-23 15:45 34.559555 -112.546905 19 7042ft 92kts
03-Apr-23 15:46 34.586257 -112.522471 48 6925ft 122kts
03-Apr-23 15:47 34.608706 -112.492212 7 7171ft 113kts
03-Apr-23 15:48 34.611268 -112.524977 237 7145ft 129kts
03-Apr-23 15:49 34.588505 -112.560194 232 7098ft 135kts
03-Apr-23 15:50 34.564399 -112.596954 237 7037ft 135kts
03-Apr-23 15:51 34.540483 -112.634346 238 6825ft 146kts
03-Apr-23 15:52 34.520643 -112.673720 242 6635ft 157kts
03-Apr-23 15:53 34.487296 -112.700399 130 5490ft 135kts
03-Apr-23 15:54 34.513813 -112.679437 7 4895ft 142kts
03-Apr-23 15:55 34.533783 -112.698079 287 5954ft 83kts
03-Apr-23 15:56 34.522205 -112.702068 154 6285ft 91kts
03-Apr-23 15:57 34.517010 -112.677668 66 6801ft 81kts
03-Apr-23 15:58 34.530948 -112.654395 15 7268ft 82kts
03-Apr-23 15:59 34.553109 -112.663638 313 7673ft 84kts
03-Apr-23 16:00 34.562724 -112.690509 268 7849ft 107kts
03-Apr-23 16:01 34.573052 -112.721634 297 8226ft 96kts
03-Apr-23 16:02 34.586343 -112.749295 306 8559ft 94kts
03-Apr-23 16:03 34.600559 -112.776284 304 8812ft 97kts
03-Apr-23 16:04 34.611674 -112.805406 289 9022ft 100kts
03-Apr-23 16:05 34.626795 -112.831719 281 9256ft 95kts
03-Apr-23 16:06 34.607019 -112.841598 178 9388ft 97kts
03-Apr-23 16:07 34.580122 -112.833870 147 9573ft 90kts
03-Apr-23 16:08 34.563729 -112.812522 133 9758ft 83kts
03-Apr-23 16:09 34.545560 -112.791051 146 9723ft 102kts
03-Apr-23 16:10 34.527137 -112.765348 136 9745ft 108kts
03-Apr-23 16:11 34.509323 -112.739690 118 9866ft 99kts
03-Apr-23 16:12 34.488402 -112.710057 137 9517ft 123kts
03-Apr-23 16:13 34.469766 -112.685187 136 9843ft 98kts
03-Apr-23 16:14 34.452226 -112.656864 126 9817ft 102kts
03-Apr-23 16:15 34.462906 -112.626784 38 9135ft 131kts
03-Apr-23 16:16 34.488823 -112.595495 49 8218ft 126kts
03-Apr-23 16:17 34.512437 -112.569455 44 8055ft 93kts
03-Apr-23 16:18 34.531064 -112.548722 42 8128ft 84kts
03-Apr-23 16:19 34.550775 -112.528633 37 7473ft 96kts
03-Apr-23 16:20 34.571259 -112.509038 43 7334ft 95kts
03-Apr-23 16:21 34.591132 -112.486248 41 6696ft 97kts
03-Apr-23 16:22 34.612298 -112.465739 43 5968ft 95kts
03-Apr-23 16:23 34.630054 -112.444847 44 5524ft 86kts
03-Apr-23 16:24 34.648782 -112.423560 45 5608ft 98kts
03-Apr-23 16:25 34.669093 -112.400967 42 6138ft 98kts
03-Apr-23 16:26 34.689508 -112.382704 42 6717ft 90kts
03-Apr-23 16:27 34.706786 -112.361500 60 7175ft 90kts
03-Apr-23 16:28 34.723966 -112.342884 35 7605ft 87kts
03-Apr-23 16:29 34.744427 -112.330034 38 8028ft 78kts
03-Apr-23 16:30 34.762020 -112.312242 43 8299ft 85kts
03-Apr-23 16:31 34.781022 -112.294562 23 8623ft 82kts
03-Apr-23 16:32 34.803369 -112.284440 23 8823ft 91kts
03-Apr-23 16:33 34.826287 -112.271761 22 9092ft 88kts
03-Apr-23 16:34 34.853327 -112.261615 13 9096ft 103kts
03-Apr-23 16:35 34.882103 -112.252666 18 9091ft 111kts
03-Apr-23 16:36 34.911418 -112.240791 42 9081ft 115kts
03-Apr-23 16:37 34.908963 -112.205529 114 9087ft 113kts
03-Apr-23 16:38 34.888557 -112.181980 219 8940ft 119kts
03-Apr-23 16:39 34.859580 -112.195445 201 9063ft 110kts
03-Apr-23 16:41 34.836944 -112.222887 236 8979ft 117kts
03-Apr-23 16:42 34.813750 -112.251702 220 8902ft 121kts
03-Apr-23 16:43 34.785340 -112.277369 219 8415ft 134kts
03-Apr-23 16:44 34.760619 -112.305365 224 7452ft 117kts
03-Apr-23 16:45 34.734108 -112.334471 217 6977ft 139kts
03-Apr-23 16:46 34.703562 -112.366848 225 6315ft 152kts
03-Apr-23 16:47 34.670309 -112.402071 220 5344ft 157kts
03-Apr-23 16:48 34.647149 -112.433267 280 6055ft 101kts
03-Apr-23 16:49 34.667657 -112.442607 334 6712ft 75kts
03-Apr-23 16:50 34.683783 -112.459295 311 7059ft 83kts
03-Apr-23 16:51 34.700341 -112.477791 322 7418ft 88kts
03-Apr-23 16:52 34.719963 -112.493435 304 7843ft 80kts
03-Apr-23 16:53 34.733672 -112.516431 337 8030ft 100kts
03-Apr-23 16:54 34.758924 -112.522555 351 8427ft 91kts
03-Apr-23 16:55 34.787619 -112.527375 349 8281ft 126kts
03-Apr-23 16:56 34.821687 -112.533645 353 8297ft 125kts
03-Apr-23 16:57 34.829846 -112.553399 179 8272ft 121kts
03-Apr-23 16:58 34.796575 -112.561735 204 8219ft 125kts
03-Apr-23 16:59 34.766031 -112.560524 134 7835ft 128kts
03-Apr-23 17:00 34.743193 -112.531155 140 7172ft 107kts
03-Apr-23 17:01 34.722632 -112.509558 140 7240ft 91kts
03-Apr-23 17:02 34.705043 -112.487628 135 6363ft 89kts
03-Apr-23 17:03 34.686014 -112.466844 141 5768ft 95kts
03-Apr-23 17:04 34.666989 -112.444791 135 5510ft 98kts
03-Apr-23 17:05 34.649253 -112.424114 139 5048ft 44kts
03-Apr-23 17:06 34.647281 -112.421104 70 5048ft 6kts
03-Apr-23 17:06 34.647281 -112.421104 70 5048ft 6kts
03-Apr-23 17:07 34.647281 -112.421104 70 5048ft 6kts
03-Apr-23 17:08 34.647281 -112.421104 70 5048ft 6kts
03-Apr-23 17:10 34.647281 -112.421104 70 5048ft 6kts
03-Apr-23 17:11 34.647281 -112.421104 70 5048ft 6kts
03-Apr-23 17:11 34.647281 -112.421104 70 5048ft 6kts
03-Apr-23 17:12 34.647281 -112.421104 70 5048ft 6kts
03-Apr-23 17:13 34.647281 -112.421104 70 5048ft 6kts
03-Apr-23 17:14 34.647281 -112.421104 70 5048ft 6kts
03-Apr-23 17:16 34.647281 -112.421104 70 5048ft 6kts
03-Apr-23 17:16 34.647281 -112.421104 70 5048ft 6kts
03-Apr-23 17:17 34.647281 -112.421104 70 5048ft 6kts
03-Apr-23 17:18 34.647281 -112.421104 70 5048ft 6kts
03-Apr-23 17:19 34.647281 -112.421104 70 5048ft 6kts

Navigation Log

Ident Type
Flight plan parsing failed, navigation log unavailable